Elista, Russia
Current Conditions -  °F | °C
As of 12:00 PM on Wednesday 26 Nov 2014 (Local Time) from URWI Reporting Station
Overcast Overcast  
Wind Chill:   Ceiling: 700
Heat Index: 16°   Visibility: 6mi
Dew Point: 14°   Wind: 16mph
Humidity: 93%   Direction: 70°ENE
Pressure: 30.33"   Gusts: NA
Location:  46.32°N, 44.21°E
Report Text: URWI 260900Z 07007MPS 9999 OVC007 M09/M10 Q1027 NOSIG
Loading
Personal Weather Stations






























Interactive Weather Map New forecast layout! Learn more

10-Day Weather Forecast

Advertisements
Track Severe Weather on mobile